Monday, January 21, 2019, 5:20 PM EST
Back to Local

KHPN, White Plains Westchester

Location: Greenwich, NY, United States Lat: 41.067
Local Time: 5:20 PM EST (22:20 GMT) Lon: -73.7
Time Zone: US/Eastern Elev: 439 ft

Show me the last for .
Show Decoded

2019-01-21 15:56 METAR KHPN 212056Z 30029G42KT 10SM FEW040 M11/M20 A3002 RMK AO2 PK WND
                 31042/2056 SLP181 T11111200 53011 $ =
2019-01-21 14:56 METAR KHPN 211956Z 29026G35KT 10SM SCT039 M11/M19 A3000 RMK AO2 PK WND
                 30040/1905 SLP174 T11111194 $ =
2019-01-21 13:56 METAR KHPN 211856Z 31030G41KT 10SM SCT037 M12/M20 A2998 RMK AO2 PK WND
                 30041/1855 SLP168 T11221200 $ =
2019-01-21 12:56 METAR KHPN 211756Z 31019G30KT 10SM SCT035 M13/M20 A2998 RMK AO2 PK WND
                 31037/1657 SLP169 T11281200 11122 21167 51011 $ =
2019-01-21 11:56 METAR KHPN 211656Z 30026G31KT 10SM BKN035 BKN090 M14/M21 A2997 RMK AO2 PK WND
                 30040/1617 SLP166 T11391206 $ =
2019-01-21 10:56 METAR KHPN 211556Z 30022G32KT 10SM SCT032 M15/M21 A2997 RMK AO2 PK WND
                 30036/1532 SLP164 T11501211 $ =
2019-01-21 09:56 METAR KHPN 211456Z 29021G34KT 10SM SCT034 M16/M22 A2995 RMK AO2 PK WND
                 30035/1428 SLP158 T11561217 53031 $ =
2019-01-21 08:56 METAR KHPN 211356Z 30020G35KT 10SM SCT029 M16/M23 A2991 RMK AO2 PK WND
                 30038/1335 SLP145 T11611228 $ =
2019-01-21 07:56 METAR KHPN 211256Z 29018G35KT 10SM SCT029 M17/M23 A2989 RMK AO2 PK WND
                 31036/1234 SLP139 T11671233 $ =
2019-01-21 06:56 METAR KHPN 211156Z 29021G31KT 10SM SCT026 M16/M22 A2986 RMK AO2 PK WND
                 28033/1146 SLP127 60000 70016 T11611222 11122 21161 53020 $ =
2019-01-21 05:56 METAR KHPN 211056Z 29017G28KT 7SM BKN027 M16/M21 A2983 RMK AO2 PK WND 30033/0958
                 DZB36E53 SLP118 P0000 T11561206 $ =
2019-01-21 04:56 METAR KHPN 210956Z 30025G31KT 10SM SCT032 M15/M21 A2981 RMK AO2 PK WND
                 30037/0943 SLP110 T11501211 $ =
2019-01-21 03:56 METAR KHPN 210856Z 30020G32KT 10SM SCT036 M14/M21 A2980 RMK AO2 PK WND
                 31038/0827 SLP104 60000 T11441211 51022 $ =
2019-01-21 02:56 METAR KHPN 210756Z 30030G36KT 10SM SCT032 M14/M21 A2979 RMK AO2 PK WND
                 29037/0742 SLP100 T11391206 $ =
2019-01-21 01:56 METAR KHPN 210656Z 30020G27KT 10SM SCT028 BKN036 M13/M18 A2976 RMK AO2 PK WND
                 29027/0654 SNB36E47 SLP091 P0000 T11281183 $ =
2019-01-21 00:56 METAR KHPN 210556Z 32019G25KT 10SM FEW030 M12/M18 A2973 RMK AO2 PK WND
                 30029/0529 SLP080 T11221183 11083 21122 51031 $ =
2019-01-20 23:56 METAR KHPN 210456Z 31018G25KT 10SM FEW030 M12/M17 A2971 RMK AO2 PK WND
                 32031/0416 SLP073 T11171172 400281117 $ =
2019-01-20 22:56 METAR KHPN 210356Z 31020G25KT 10SM CLR M11/M17 A2968 RMK AO2 PK WND 32032/0325
                 SLP062 T11111167 $ =
2019-01-20 21:56 METAR KHPN 210256Z 30023G33KT 10SM FEW032 M11/M17 A2964 RMK AO2 PK WND
                 31036/0221 SLP047 T11061167 51033 $ =
2019-01-20 20:56 METAR KHPN 210156Z 31023G32KT 10SM CLR M11/M16 A2962 RMK AO2 PK WND 30034/0113
                 SLP039 T11061161 $ =
2019-01-20 19:56 METAR KHPN 210056Z 31020G33KT 10SM FEW028 M09/M15 A2958 RMK AO2 PK WND
                 30033/0047 SLP028 T10941150 $ =
2019-01-20 18:56 METAR KHPN 202356Z 31020G30KT 10SM SCT025 M08/M14 A2954 RMK AO2 PK WND
                 31036/2337 SLP014 60000 T10831139 10011 21083 51055 $ =
2019-01-20 17:56 METAR KHPN 202256Z 30022G35KT 10SM OVC025 M06/M11 A2950 RMK AO2 PK WND
                 30036/2240 SLP998 T10611111 $ =

Support USWX by starting your Amazon purchase here.